sensor_id;sensor_type;location;lat;lon;timestamp;pressure;altitude;pressure_sealevel;temperature;humidity
71768;BME280;59604;52.138;5.446;2022-08-21T00:02:17;101890.91;;;14.99;80.82
71768;BME280;59604;52.138;5.446;2022-08-21T00:04:45;101887.38;;;14.92;81.43
71768;BME280;59604;52.138;5.446;2022-08-21T00:07:22;101891.59;;;14.86;81.24
71768;BME280;59604;52.138;5.446;2022-08-21T00:09:51;101889.66;;;14.73;81.60
71768;BME280;59604;52.138;5.446;2022-08-21T00:12:18;101884.03;;;14.62;82.14
71768;BME280;59604;52.138;5.446;2022-08-21T00:14:44;101896.44;;;14.61;82.45
71768;BME280;59604;52.138;5.446;2022-08-21T00:17:11;101888.94;;;14.65;82.05
71768;BME280;59604;52.138;5.446;2022-08-21T00:19:39;101888.78;;;14.66;82.15
71768;BME280;59604;52.138;5.446;2022-08-21T00:22:06;101888.63;;;14.74;81.83
71768;BME280;59604;52.138;5.446;2022-08-21T00:24:32;101886.22;;;14.80;81.23
71768;BME280;59604;52.138;5.446;2022-08-21T00:26:58;101883.41;;;14.81;81.13
71768;BME280;59604;52.138;5.446;2022-08-21T00:29:25;101886.13;;;14.66;81.49
71768;BME280;59604;52.138;5.446;2022-08-21T00:31:52;101879.28;;;14.57;82.04
71768;BME280;59604;52.138;5.446;2022-08-21T00:34:18;101883.31;;;14.53;82.40
71768;BME280;59604;52.138;5.446;2022-08-21T00:36:45;101884.13;;;14.54;82.21
71768;BME280;59604;52.138;5.446;2022-08-21T00:39:11;101874.19;;;14.56;82.20
71768;BME280;59604;52.138;5.446;2022-08-21T00:41:38;101876.38;;;14.52;82.26
71768;BME280;59604;52.138;5.446;2022-08-21T00:44:07;101874.06;;;14.49;82.45
71768;BME280;59604;52.138;5.446;2022-08-21T00:46:35;101874.91;;;14.49;82.59
71768;BME280;59604;52.138;5.446;2022-08-21T00:49:03;101875.09;;;14.48;82.61
71768;BME280;59604;52.138;5.446;2022-08-21T00:51:54;101877.28;;;14.44;82.47
71768;BME280;59604;52.138;5.446;2022-08-21T00:54:24;101878.38;;;14.50;82.41
71768;BME280;59604;52.138;5.446;2022-08-21T00:56:57;101889.34;;;14.47;82.44
71768;BME280;59604;52.138;5.446;2022-08-21T00:59:26;101874.56;;;14.38;82.53
71768;BME280;59604;52.138;5.446;2022-08-21T01:01:54;101880.59;;;14.32;83.01
71768;BME280;59604;52.138;5.446;2022-08-21T01:04:25;101879.41;;;14.34;82.67
71768;BME280;59604;52.138;5.446;2022-08-21T01:06:52;101878.22;;;14.37;82.84
71768;BME280;59604;52.138;5.446;2022-08-21T01:09:19;101875.66;;;14.43;82.51
71768;BME280;59604;52.138;5.446;2022-08-21T01:11:46;101867.50;;;14.45;82.19
71768;BME280;59604;52.138;5.446;2022-08-21T01:14:14;101878.69;;;14.40;82.34
71768;BME280;59604;52.138;5.446;2022-08-21T01:16:44;101867.44;;;14.38;82.17
71768;BME280;59604;52.138;5.446;2022-08-21T01:19:11;101868.69;;;14.42;82.08
71768;BME280;59604;52.138;5.446;2022-08-21T01:21:38;101862.56;;;14.42;82.16
71768;BME280;59604;52.138;5.446;2022-08-21T01:24:04;101860.75;;;14.42;82.22
71768;BME280;59604;52.138;5.446;2022-08-21T01:26:33;101870.34;;;14.43;82.04
71768;BME280;59604;52.138;5.446;2022-08-21T01:31:38;101874.44;;;14.46;81.82
71768;BME280;59604;52.138;5.446;2022-08-21T01:34:05;101872.81;;;14.45;81.83
71768;BME280;59604;52.138;5.446;2022-08-21T01:36:32;101873.56;;;14.39;82.18
71768;BME280;59604;52.138;5.446;2022-08-21T01:39:00;101864.09;;;14.30;82.56
71768;BME280;59604;52.138;5.446;2022-08-21T01:41:26;101869.09;;;14.24;82.56
71768;BME280;59604;52.138;5.446;2022-08-21T01:43:53;101871.69;;;14.18;82.87
71768;BME280;59604;52.138;5.446;2022-08-21T01:46:19;101866.00;;;14.21;82.87
71768;BME280;59604;52.138;5.446;2022-08-21T01:48:46;101866.19;;;14.19;82.93
71768;BME280;59604;52.138;5.446;2022-08-21T01:51:13;101866.47;;;14.10;83.31
71768;BME280;59604;52.138;5.446;2022-08-21T01:53:39;101861.75;;;14.05;83.77
71768;BME280;59604;52.138;5.446;2022-08-21T01:56:08;101866.34;;;13.96;83.59
71768;BME280;59604;52.138;5.446;2022-08-21T01:58:40;101860.13;;;13.89;83.83
71768;BME280;59604;52.138;5.446;2022-08-21T02:01:08;101866.63;;;13.87;84.01
71768;BME280;59604;52.138;5.446;2022-08-21T02:03:36;101864.53;;;13.82;84.14
71768;BME280;59604;52.138;5.446;2022-08-21T02:06:04;101865.34;;;13.83;83.95
71768;BME280;59604;52.138;5.446;2022-08-21T02:08:30;101863.50;;;13.83;83.92
71768;BME280;59604;52.138;5.446;2022-08-21T02:10:57;101856.94;;;13.79;83.90
71768;BME280;59604;52.138;5.446;2022-08-21T02:13:24;101852.56;;;13.71;84.29
71768;BME280;59604;52.138;5.446;2022-08-21T02:15:50;101851.38;;;13.74;84.33
71768;BME280;59604;52.138;5.446;2022-08-21T02:18:17;101841.72;;;13.81;83.96
71768;BME280;59604;52.138;5.446;2022-08-21T02:20:46;101846.81;;;13.83;83.87
71768;BME280;59604;52.138;5.446;2022-08-21T02:23:13;101846.44;;;13.86;83.31
71768;BME280;59604;52.138;5.446;2022-08-21T02:25:41;101847.91;;;13.88;83.66
71768;BME280;59604;52.138;5.446;2022-08-21T02:28:13;101845.88;;;13.90;83.26
71768;BME280;59604;52.138;5.446;2022-08-21T02:30:43;101847.34;;;13.93;83.28
71768;BME280;59604;52.138;5.446;2022-08-21T02:33:11;101840.22;;;13.93;83.30
71768;BME280;59604;52.138;5.446;2022-08-21T02:35:40;101833.91;;;13.94;82.98
71768;BME280;59604;52.138;5.446;2022-08-21T02:38:13;101835.13;;;13.92;83.07
71768;BME280;59604;52.138;5.446;2022-08-21T02:40:42;101837.78;;;13.92;82.71
71768;BME280;59604;52.138;5.446;2022-08-21T02:43:17;101832.63;;;13.90;82.88
71768;BME280;59604;52.138;5.446;2022-08-21T02:45:45;101831.16;;;13.88;83.05
71768;BME280;59604;52.138;5.446;2022-08-21T02:48:15;101835.66;;;13.87;82.96
71768;BME280;59604;52.138;5.446;2022-08-21T02:50:48;101828.53;;;13.88;82.98
71768;BME280;59604;52.138;5.446;2022-08-21T02:53:15;101825.06;;;13.87;83.00
71768;BME280;59604;52.138;5.446;2022-08-21T02:55:48;101823.22;;;13.88;83.08
71768;BME280;59604;52.138;5.446;2022-08-21T02:58:17;101820.78;;;13.86;83.05
71768;BME280;59604;52.138;5.446;2022-08-21T03:00:45;101820.97;;;13.85;83.14
71768;BME280;59604;52.138;5.446;2022-08-21T03:03:12;101820.97;;;13.85;83.15
71768;BME280;59604;52.138;5.446;2022-08-21T03:05:42;101814.00;;;13.84;83.25
71768;BME280;59604;52.138;5.446;2022-08-21T03:08:11;101814.13;;;13.75;83.33
71768;BME280;59604;52.138;5.446;2022-08-21T03:10:44;101813.22;;;13.68;84.02
71768;BME280;59604;52.138;5.446;2022-08-21T03:13:11;101817.03;;;13.66;84.04
71768;BME280;59604;52.138;5.446;2022-08-21T03:15:38;101813.31;;;13.60;84.24
71768;BME280;59604;52.138;5.446;2022-08-21T03:18:06;101814.69;;;13.56;84.69
71768;BME280;59604;52.138;5.446;2022-08-21T03:20:35;101813.41;;;13.52;84.98
71768;BME280;59604;52.138;5.446;2022-08-21T03:23:02;101812.59;;;13.51;84.76
71768;BME280;59604;52.138;5.446;2022-08-21T03:25:39;101811.94;;;13.49;85.12
71768;BME280;59604;52.138;5.446;2022-08-21T03:28:09;101810.13;;;13.50;84.76
71768;BME280;59604;52.138;5.446;2022-08-21T03:30:42;101805.84;;;13.49;84.84
71768;BME280;59604;52.138;5.446;2022-08-21T03:33:09;101818.72;;;13.52;84.82
71768;BME280;59604;52.138;5.446;2022-08-21T03:35:42;101809.97;;;13.51;84.80
71768;BME280;59604;52.138;5.446;2022-08-21T03:38:09;101801.63;;;13.54;84.72
71768;BME280;59604;52.138;5.446;2022-08-21T03:40:36;101810.41;;;13.55;84.52
71768;BME280;59604;52.138;5.446;2022-08-21T03:43:03;101811.22;;;13.56;84.33
71768;BME280;59604;52.138;5.446;2022-08-21T03:45:29;101807.75;;;13.55;84.34
71768;BME280;59604;52.138;5.446;2022-08-21T03:47:59;101806.09;;;13.54;84.43
71768;BME280;59604;52.138;5.446;2022-08-21T03:50:30;101803.44;;;13.54;84.43
71768;BME280;59604;52.138;5.446;2022-08-21T03:53:00;101805.28;;;13.53;84.32
71768;BME280;59604;52.138;5.446;2022-08-21T03:55:26;101804.47;;;13.53;84.25
71768;BME280;59604;52.138;5.446;2022-08-21T03:57:53;101801.16;;;13.51;84.06
71768;BME280;59604;52.138;5.446;2022-08-21T04:00:20;101806.66;;;13.49;84.11
71768;BME280;59604;52.138;5.446;2022-08-21T04:02:47;101803.19;;;13.49;84.05
71768;BME280;59604;52.138;5.446;2022-08-21T04:05:15;101803.34;;;13.47;83.87
71768;BME280;59604;52.138;5.446;2022-08-21T04:07:58;101814.97;;;13.46;84.28
71768;BME280;59604;52.138;5.446;2022-08-21T04:10:26;101811.84;;;13.43;84.46
71768;BME280;59604;52.138;5.446;2022-08-21T04:12:54;101809.09;;;13.36;84.77
71768;BME280;59604;52.138;5.446;2022-08-21T04:15:23;101812.16;;;13.33;85.39
71768;BME280;59604;52.138;5.446;2022-08-21T04:17:50;101812.88;;;13.27;85.72
71768;BME280;59604;52.138;5.446;2022-08-21T04:20:18;101804.78;;;13.20;85.78
71768;BME280;59604;52.138;5.446;2022-08-21T04:22:45;101809.97;;;13.14;86.06
71768;BME280;59604;52.138;5.446;2022-08-21T04:25:13;101808.06;;;13.08;86.22
71768;BME280;59604;52.138;5.446;2022-08-21T04:27:40;101811.06;;;13.04;86.41
71768;BME280;59604;52.138;5.446;2022-08-21T04:30:09;101809.34;;;12.97;86.65
71768;BME280;59604;52.138;5.446;2022-08-21T04:32:37;101812.94;;;12.96;86.72
71768;BME280;59604;52.138;5.446;2022-08-21T04:35:09;101801.91;;;12.92;87.07
71768;BME280;59604;52.138;5.446;2022-08-21T04:37:36;101806.84;;;12.95;86.78
71768;BME280;59604;52.138;5.446;2022-08-21T04:40:10;101809.69;;;12.94;86.56
71768;BME280;59604;52.138;5.446;2022-08-21T04:42:53;101806.38;;;12.92;86.57
71768;BME280;59604;52.138;5.446;2022-08-21T04:45:28;101808.06;;;12.93;86.71
71768;BME280;59604;52.138;5.446;2022-08-21T04:47:58;101800.13;;;12.93;86.71
71768;BME280;59604;52.138;5.446;2022-08-21T04:50:29;101796.63;;;12.92;86.66
71768;BME280;59604;52.138;5.446;2022-08-21T04:52:58;101800.28;;;12.91;86.62
71768;BME280;59604;52.138;5.446;2022-08-21T04:55:25;101801.91;;;12.92;86.96
71768;BME280;59604;52.138;5.446;2022-08-21T04:57:55;101802.56;;;12.94;86.98
71768;BME280;59604;52.138;5.446;2022-08-21T05:00:24;101809.84;;;12.92;86.77
71768;BME280;59604;52.138;5.446;2022-08-21T05:02:52;101811.03;;;12.90;86.88
71768;BME280;59604;52.138;5.446;2022-08-21T05:05:23;101810.69;;;12.93;86.87
71768;BME280;59604;52.138;5.446;2022-08-21T05:07:50;101811.97;;;12.97;86.67
71768;BME280;59604;52.138;5.446;2022-08-21T05:10:21;101819.00;;;13.04;86.68
71768;BME280;59604;52.138;5.446;2022-08-21T05:12:49;101818.28;;;13.11;86.66
71768;BME280;59604;52.138;5.446;2022-08-21T05:15:15;101823.84;;;13.16;86.32
71768;BME280;59604;52.138;5.446;2022-08-21T05:17:43;101826.78;;;13.21;86.18
71768;BME280;59604;52.138;5.446;2022-08-21T05:20:25;101828.75;;;13.27;86.13
71768;BME280;59604;52.138;5.446;2022-08-21T05:22:52;101833.66;;;13.30;85.98
71768;BME280;59604;52.138;5.446;2022-08-21T05:25:19;101834.75;;;13.36;85.98
71768;BME280;59604;52.138;5.446;2022-08-21T05:27:49;101837.03;;;13.39;86.42
71768;BME280;59604;52.138;5.446;2022-08-21T05:30:18;101838.31;;;13.43;86.58
71768;BME280;59604;52.138;5.446;2022-08-21T05:32:46;101833.69;;;13.45;86.73
71768;BME280;59604;52.138;5.446;2022-08-21T05:35:12;101833.50;;;13.46;86.81
71768;BME280;59604;52.138;5.446;2022-08-21T05:37:39;101838.06;;;13.52;86.79
71768;BME280;59604;52.138;5.446;2022-08-21T05:40:06;101829.41;;;13.59;87.08
71768;BME280;59604;52.138;5.446;2022-08-21T05:42:47;101834.31;;;13.62;86.95
71768;BME280;59604;52.138;5.446;2022-08-21T05:45:20;101840.06;;;13.65;87.37
71768;BME280;59604;52.138;5.446;2022-08-21T05:48:08;101833.22;;;13.71;87.21
71768;BME280;59604;52.138;5.446;2022-08-21T05:50:35;101833.47;;;13.76;87.34
71768;BME280;59604;52.138;5.446;2022-08-21T05:53:05;101836.78;;;13.78;87.29
71768;BME280;59604;52.138;5.446;2022-08-21T05:55:32;101836.22;;;13.83;87.56
71768;BME280;59604;52.138;5.446;2022-08-21T05:57:59;101834.84;;;13.87;87.29
71768;BME280;59604;52.138;5.446;2022-08-21T06:00:26;101834.09;;;13.93;87.51
71768;BME280;59604;52.138;5.446;2022-08-21T06:02:52;101830.06;;;13.97;87.34
71768;BME280;59604;52.138;5.446;2022-08-21T06:05:19;101825.84;;;14.02;87.26
71768;BME280;59604;52.138;5.446;2022-08-21T06:08:02;101826.94;;;14.08;87.43
71768;BME280;59604;52.138;5.446;2022-08-21T06:10:29;101828.84;;;14.14;87.58
71768;BME280;59604;52.138;5.446;2022-08-21T06:12:55;101828.09;;;14.20;86.78
71768;BME280;59604;52.138;5.446;2022-08-21T06:15:22;101840.59;;;14.26;87.07
71768;BME280;59604;52.138;5.446;2022-08-21T06:17:48;101830.06;;;14.33;86.76
71768;BME280;59604;52.138;5.446;2022-08-21T06:20:15;101834.59;;;14.39;87.01
71768;BME280;59604;52.138;5.446;2022-08-21T06:22:42;101827.53;;;14.46;87.27
71768;BME280;59604;52.138;5.446;2022-08-21T06:25:08;101828.84;;;14.50;86.34
71768;BME280;59604;52.138;5.446;2022-08-21T06:27:35;101834.22;;;14.57;87.10
71768;BME280;59604;52.138;5.446;2022-08-21T06:30:04;101827.94;;;14.65;87.59
71768;BME280;59604;52.138;5.446;2022-08-21T06:32:31;101830.50;;;14.73;87.87
71768;BME280;59604;52.138;5.446;2022-08-21T06:34:58;101825.06;;;14.81;87.89
71768;BME280;59604;52.138;5.446;2022-08-21T06:37:25;101827.75;;;14.88;87.21
71768;BME280;59604;52.138;5.446;2022-08-21T06:39:51;101823.13;;;14.96;87.54
71768;BME280;59604;52.138;5.446;2022-08-21T06:42:18;101825.84;;;15.03;86.18
71768;BME280;59604;52.138;5.446;2022-08-21T06:44:46;101825.69;;;15.11;86.48
71768;BME280;59604;52.138;5.446;2022-08-21T06:47:14;101830.22;;;15.17;86.19
71768;BME280;59604;52.138;5.446;2022-08-21T06:49:40;101828.88;;;15.28;86.67
71768;BME280;59604;52.138;5.446;2022-08-21T06:52:12;101828.72;;;15.36;87.05
71768;BME280;59604;52.138;5.446;2022-08-21T06:54:39;101824.69;;;15.47;87.41
71768;BME280;59604;52.138;5.446;2022-08-21T06:57:06;101834.38;;;15.61;87.00
71768;BME280;59604;52.138;5.446;2022-08-21T06:59:33;101829.34;;;15.73;86.87
71768;BME280;59604;52.138;5.446;2022-08-21T07:02:00;101827.75;;;15.85;85.88
71768;BME280;59604;52.138;5.446;2022-08-21T07:04:27;101826.59;;;16.01;86.26
71768;BME280;59604;52.138;5.446;2022-08-21T07:06:53;101826.63;;;16.14;86.08
71768;BME280;59604;52.138;5.446;2022-08-21T07:09:20;101822.34;;;16.27;86.50
71768;BME280;59604;52.138;5.446;2022-08-21T07:11:52;101823.00;;;16.42;86.10
71768;BME280;59604;52.138;5.446;2022-08-21T07:14:20;101822.44;;;16.53;84.92
71768;BME280;59604;52.138;5.446;2022-08-21T07:16:48;101818.13;;;16.59;84.09
71768;BME280;59604;52.138;5.446;2022-08-21T07:19:14;101818.72;;;16.67;84.24
71768;BME280;59604;52.138;5.446;2022-08-21T07:21:41;101816.94;;;16.81;83.59
71768;BME280;59604;52.138;5.446;2022-08-21T07:24:08;101809.75;;;16.88;84.12
71768;BME280;59604;52.138;5.446;2022-08-21T07:26:35;101815.69;;;16.97;83.62
71768;BME280;59604;52.138;5.446;2022-08-21T07:29:02;101817.53;;;17.03;82.15
71768;BME280;59604;52.138;5.446;2022-08-21T07:31:29;101816.72;;;17.09;83.15
71768;BME280;59604;52.138;5.446;2022-08-21T07:33:55;101819.56;;;17.14;83.43
71768;BME280;59604;52.138;5.446;2022-08-21T07:36:22;101817.72;;;17.22;81.60
71768;BME280;59604;52.138;5.446;2022-08-21T07:38:49;101818.94;;;17.26;82.60
71768;BME280;59604;52.138;5.446;2022-08-21T07:41:26;101814.41;;;17.33;82.42
71768;BME280;59604;52.138;5.446;2022-08-21T07:43:56;101815.44;;;17.38;81.97
71768;BME280;59604;52.138;5.446;2022-08-21T07:46:24;101817.25;;;17.45;82.42
71768;BME280;59604;52.138;5.446;2022-08-21T07:48:51;101833.22;;;17.51;82.00
71768;BME280;59604;52.138;5.446;2022-08-21T07:51:21;101816.59;;;17.56;82.45
71768;BME280;59604;52.138;5.446;2022-08-21T07:53:51;101813.91;;;17.62;82.33
71768;BME280;59604;52.138;5.446;2022-08-21T07:56:18;101823.50;;;17.70;80.92
71768;BME280;59604;52.138;5.446;2022-08-21T07:58:46;101823.53;;;17.77;81.48
71768;BME280;59604;52.138;5.446;2022-08-21T08:01:13;101829.88;;;17.82;81.74
71768;BME280;59604;52.138;5.446;2022-08-21T08:03:40;101820.19;;;17.88;81.04
71768;BME280;59604;52.138;5.446;2022-08-21T08:06:07;101823.66;;;17.95;80.27
71768;BME280;59604;52.138;5.446;2022-08-21T08:08:39;101823.63;;;18.02;80.61
71768;BME280;59604;52.138;5.446;2022-08-21T08:11:09;101818.47;;;18.07;80.51
71768;BME280;59604;52.138;5.446;2022-08-21T08:13:45;101822.78;;;18.08;79.86
71768;BME280;59604;52.138;5.446;2022-08-21T08:16:12;101817.19;;;18.16;80.70
71768;BME280;59604;52.138;5.446;2022-08-21T08:18:39;101809.97;;;18.23;80.25
71768;BME280;59604;52.138;5.446;2022-08-21T08:21:09;101816.50;;;18.27;80.07
71768;BME280;59604;52.138;5.446;2022-08-21T08:23:35;101811.94;;;18.34;79.98
71768;BME280;59604;52.138;5.446;2022-08-21T08:26:02;101808.41;;;18.41;79.49
71768;BME280;59604;52.138;5.446;2022-08-21T08:28:29;101801.63;;;18.45;79.38
71768;BME280;59604;52.138;5.446;2022-08-21T08:30:59;101806.25;;;18.56;79.07
71768;BME280;59604;52.138;5.446;2022-08-21T08:33:26;101816.03;;;18.62;78.05
71768;BME280;59604;52.138;5.446;2022-08-21T08:35:53;101810.50;;;18.64;79.53
71768;BME280;59604;52.138;5.446;2022-08-21T08:38:23;101814.97;;;18.70;78.90
71768;BME280;59604;52.138;5.446;2022-08-21T08:41:12;101812.94;;;18.72;78.40
71768;BME280;59604;52.138;5.446;2022-08-21T08:43:42;101816.94;;;18.81;78.72
71768;BME280;59604;52.138;5.446;2022-08-21T08:46:15;101827.28;;;18.96;77.90
71768;BME280;59604;52.138;5.446;2022-08-21T08:48:53;101812.63;;;19.05;78.27
71768;BME280;59604;52.138;5.446;2022-08-21T08:54:09;101807.63;;;19.34;76.54
71768;BME280;59604;52.138;5.446;2022-08-21T08:56:37;101808.88;;;19.49;75.97
71768;BME280;59604;52.138;5.446;2022-08-21T08:59:24;101807.03;;;19.68;76.13
71768;BME280;59604;52.138;5.446;2022-08-21T09:01:52;101804.69;;;19.90;76.22
71768;BME280;59604;52.138;5.446;2022-08-21T09:04:23;101806.66;;;20.13;74.64
71768;BME280;59604;52.138;5.446;2022-08-21T09:07:01;101804.16;;;20.30;73.35
71768;BME280;59604;52.138;5.446;2022-08-21T09:18:05;101795.88;;;20.73;70.46
71768;BME280;59604;52.138;5.446;2022-08-21T09:21:16;101790.88;;;20.89;70.77
71768;BME280;59604;52.138;5.446;2022-08-21T09:26:19;101794.44;;;21.30;68.39
71768;BME280;59604;52.138;5.446;2022-08-21T09:28:50;101790.69;;;21.42;68.88
71768;BME280;59604;52.138;5.446;2022-08-21T09:31:33;101792.81;;;21.40;68.68
71768;BME280;59604;52.138;5.446;2022-08-21T09:34:03;101794.91;;;21.38;67.00
71768;BME280;59604;52.138;5.446;2022-08-21T09:36:51;101795.97;;;21.37;68.91
71768;BME280;59604;52.138;5.446;2022-08-21T09:39:25;101800.81;;;21.52;67.47
71768;BME280;59604;52.138;5.446;2022-08-21T09:42:02;101806.16;;;21.64;66.65
71768;BME280;59604;52.138;5.446;2022-08-21T09:44:33;101802.81;;;21.85;66.46
71768;BME280;59604;52.138;5.446;2022-08-21T09:46:59;101806.78;;;22.11;66.66
71768;BME280;59604;52.138;5.446;2022-08-21T09:49:31;101809.34;;;22.35;65.09
71768;BME280;59604;52.138;5.446;2022-08-21T09:51:59;101803.53;;;22.55;65.53
71768;BME280;59604;52.138;5.446;2022-08-21T09:54:33;101798.13;;;22.72;64.26
71768;BME280;59604;52.138;5.446;2022-08-21T09:57:13;101802.22;;;22.57;63.96
71768;BME280;59604;52.138;5.446;2022-08-21T10:00:30;101797.19;;;22.95;63.34
71768;BME280;59604;52.138;5.446;2022-08-21T10:03:18;101795.44;;;23.05;62.06
71768;BME280;59604;52.138;5.446;2022-08-21T10:05:56;101795.13;;;22.85;63.31
71768;BME280;59604;52.138;5.446;2022-08-21T10:08:26;101790.72;;;22.79;63.49
71768;BME280;59604;52.138;5.446;2022-08-21T10:11:15;101793.03;;;22.70;62.97
71768;BME280;59604;52.138;5.446;2022-08-21T10:19:27;101794.56;;;21.75;64.98
71768;BME280;59604;52.138;5.446;2022-08-21T10:22:27;101796.34;;;21.98;65.12
71768;BME280;59604;52.138;5.446;2022-08-21T10:25:17;101782.34;;;22.41;63.30
71768;BME280;59604;52.138;5.446;2022-08-21T10:28:16;101795.06;;;22.46;62.25
71768;BME280;59604;52.138;5.446;2022-08-21T10:30:52;101792.03;;;22.26;62.48
71768;BME280;59604;52.138;5.446;2022-08-21T10:33:43;101789.19;;;22.15;63.66
71768;BME280;59604;52.138;5.446;2022-08-21T10:36:17;101782.53;;;22.52;64.35
71768;BME280;59604;52.138;5.446;2022-08-21T10:38:56;101773.88;;;22.83;60.91
71768;BME280;59604;52.138;5.446;2022-08-21T10:42:08;101774.31;;;23.14;61.87
71768;BME280;59604;52.138;5.446;2022-08-21T10:47:53;101761.94;;;23.79;59.48
71768;BME280;59604;52.138;5.446;2022-08-21T10:50:33;101771.31;;;24.03;57.03
71768;BME280;59604;52.138;5.446;2022-08-21T10:55:39;101775.53;;;24.26;55.23
71768;BME280;59604;52.138;5.446;2022-08-21T10:58:14;101762.13;;;23.99;56.67
71768;BME280;59604;52.138;5.446;2022-08-21T11:00:48;101755.25;;;24.14;56.55
71768;BME280;59604;52.138;5.446;2022-08-21T11:03:44;101758.34;;;24.27;55.81
71768;BME280;59604;52.138;5.446;2022-08-21T11:06:18;101752.84;;;24.44;55.58
71768;BME280;59604;52.138;5.446;2022-08-21T11:08:51;101758.22;;;24.44;54.00
71768;BME280;59604;52.138;5.446;2022-08-21T11:11:31;101767.03;;;24.34;53.67
71768;BME280;59604;52.138;5.446;2022-08-21T11:14:08;101764.56;;;24.33;54.03
71768;BME280;59604;52.138;5.446;2022-08-21T11:16:43;101763.53;;;24.71;53.73
71768;BME280;59604;52.138;5.446;2022-08-21T11:19:26;101759.69;;;24.30;54.09
71768;BME280;59604;52.138;5.446;2022-08-21T11:22:07;101748.91;;;24.30;55.51
71768;BME280;59604;52.138;5.446;2022-08-21T11:24:51;101750.59;;;24.73;53.18
71768;BME280;59604;52.138;5.446;2022-08-21T11:27:23;101755.31;;;24.93;52.12
71768;BME280;59604;52.138;5.446;2022-08-21T11:29:56;101749.00;;;25.20;51.01
71768;BME280;59604;52.138;5.446;2022-08-21T11:41:08;101749.81;;;25.25;51.31
71768;BME280;59604;52.138;5.446;2022-08-21T11:43:41;101755.56;;;24.92;50.26
71768;BME280;59604;52.138;5.446;2022-08-21T11:51:21;101756.84;;;24.79;50.38
71768;BME280;59604;52.138;5.446;2022-08-21T11:53:53;101763.97;;;24.53;51.02
71768;BME280;59604;52.138;5.446;2022-08-21T11:56:28;101773.47;;;24.66;50.87
71768;BME280;59604;52.138;5.446;2022-08-21T11:59:02;101759.91;;;24.50;52.24
71768;BME280;59604;52.138;5.446;2022-08-21T12:01:36;101778.03;;;24.33;51.16
71768;BME280;59604;52.138;5.446;2022-08-21T12:04:08;101778.19;;;24.16;52.29
71768;BME280;59604;52.138;5.446;2022-08-21T12:06:39;101769.97;;;24.01;52.37
71768;BME280;59604;52.138;5.446;2022-08-21T12:09:11;101772.25;;;23.87;52.91
71768;BME280;59604;52.138;5.446;2022-08-21T12:14:48;101784.47;;;23.51;55.45
71768;BME280;59604;52.138;5.446;2022-08-21T12:17:34;101776.28;;;23.41;56.43
71768;BME280;59604;52.138;5.446;2022-08-21T12:20:16;101781.78;;;23.51;55.73
71768;BME280;59604;52.138;5.446;2022-08-21T12:22:51;101783.66;;;23.50;56.09
71768;BME280;59604;52.138;5.446;2022-08-21T12:25:19;101775.91;;;23.54;55.25
71768;BME280;59604;52.138;5.446;2022-08-21T12:27:51;101773.81;;;23.61;55.05
71768;BME280;59604;52.138;5.446;2022-08-21T12:30:44;101769.75;;;23.58;55.44
71768;BME280;59604;52.138;5.446;2022-08-21T12:33:23;101767.03;;;23.53;56.38
71768;BME280;59604;52.138;5.446;2022-08-21T12:35:53;101774.63;;;23.61;54.74
71768;BME280;59604;52.138;5.446;2022-08-21T12:38:29;101772.69;;;24.06;54.58
71768;BME280;59604;52.138;5.446;2022-08-21T12:41:06;101767.41;;;24.48;53.83
71768;BME280;59604;52.138;5.446;2022-08-21T12:43:53;101768.00;;;24.55;54.17
71768;BME280;59604;52.138;5.446;2022-08-21T12:46:32;101764.97;;;24.47;53.43
71768;BME280;59604;52.138;5.446;2022-08-21T12:49:06;101773.06;;;24.47;52.83
71768;BME280;59604;52.138;5.446;2022-08-21T12:52:19;101776.06;;;24.50;53.46
71768;BME280;59604;52.138;5.446;2022-08-21T12:54:42;101775.19;;;24.45;52.15
71768;BME280;59604;52.138;5.446;2022-08-21T12:57:27;101766.88;;;24.51;51.97
71768;BME280;59604;52.138;5.446;2022-08-21T13:00:00;101772.97;;;25.16;51.53
71768;BME280;59604;52.138;5.446;2022-08-21T13:02:36;101771.47;;;25.41;49.64
71768;BME280;59604;52.138;5.446;2022-08-21T13:05:07;101768.97;;;25.24;48.40
71768;BME280;59604;52.138;5.446;2022-08-21T13:07:44;101773.13;;;24.99;49.93
71768;BME280;59604;52.138;5.446;2022-08-21T13:10:28;101780.84;;;24.80;50.73
71768;BME280;59604;52.138;5.446;2022-08-21T13:12:58;101778.59;;;24.67;50.56
71768;BME280;59604;52.138;5.446;2022-08-21T13:15:31;101777.69;;;24.99;49.76
71768;BME280;59604;52.138;5.446;2022-08-21T13:18:00;101773.94;;;25.00;49.30
71768;BME280;59604;52.138;5.446;2022-08-21T13:20:36;101784.97;;;24.93;50.73
71768;BME280;59604;52.138;5.446;2022-08-21T13:23:20;101781.09;;;24.79;50.93
71768;BME280;59604;52.138;5.446;2022-08-21T13:25:48;101789.09;;;24.64;49.59
71768;BME280;59604;52.138;5.446;2022-08-21T13:28:15;101779.56;;;24.51;51.08
71768;BME280;59604;52.138;5.446;2022-08-21T13:33:14;101786.41;;;24.64;51.49
71768;BME280;59604;52.138;5.446;2022-08-21T13:36:00;101778.56;;;25.04;49.94
71768;BME280;59604;52.138;5.446;2022-08-21T13:38:32;101773.03;;;25.32;50.21
71768;BME280;59604;52.138;5.446;2022-08-21T13:43:33;101771.59;;;25.14;49.89
71768;BME280;59604;52.138;5.446;2022-08-21T13:46:01;101768.44;;;25.32;50.90
71768;BME280;59604;52.138;5.446;2022-08-21T13:48:33;101773.38;;;25.50;49.62
71768;BME280;59604;52.138;5.446;2022-08-21T13:51:01;101778.78;;;25.56;48.88
71768;BME280;59604;52.138;5.446;2022-08-21T13:53:35;101777.97;;;25.50;48.82
71768;BME280;59604;52.138;5.446;2022-08-21T13:56:04;101775.75;;;25.37;49.30
71768;BME280;59604;52.138;5.446;2022-08-21T13:58:57;101773.84;;;25.32;49.60
71768;BME280;59604;52.138;5.446;2022-08-21T14:01:30;101770.28;;;25.21;49.69
71768;BME280;59604;52.138;5.446;2022-08-21T14:04:06;101772.47;;;25.24;50.60